Time;durP1;ratioP1;P1;durP2;ratioP2;P2;SDS_P1;SDS_P2;PMS_P1;PMS_P2;Temp;Humidity;BMP_temperature;BMP_pressure;BME280_temperature;BME280_humidity;BME280_pressure;Samples;Min_cycle;Max_cycle;Signal;HPM_P1;HPM_P2
2023/07/15 00:01:06;;;;;;;1.90;1.40;;;;;;;;;;5024930;28;20507;-77
2023/07/15 00:03:33;;;;;;;1.98;1.48;;;;;;;;;;5034240;28;20180;-77
2023/07/15 00:05:59;;;;;;;3.40;1.77;;;;;;;;;;5023238;28;20358;-77
2023/07/15 00:08:25;;;;;;;2.80;1.60;;;;;;;;;;5028832;28;20048;-77
2023/07/15 00:10:54;;;;;;;2.15;1.50;;;;;;;;;;5024597;28;20021;-76
2023/07/15 00:13:20;;;;;;;1.70;1.30;;;;;;;;;;5035819;28;20026;-76
2023/07/15 00:15:50;;;;;;;1.55;1.23;;;;;;;;;;5030418;28;20052;-77
2023/07/15 00:18:16;;;;;;;1.60;1.40;;;;;;;;;;5028831;28;20534;-78
2023/07/15 00:20:42;;;;;;;2.00;1.40;;;;;;;;;;5029875;28;20029;-77
2023/07/15 00:23:16;;;;;;;1.70;1.48;;;;;;;;;;5029628;28;20033;-78
2023/07/15 00:25:41;;;;;;;1.88;1.50;;;;;;;;;;5028660;28;20030;-77
2023/07/15 00:28:07;;;;;;;2.08;1.67;;;;;;;;;;5010142;28;20084;-77
2023/07/15 00:30:34;;;;;;;1.50;1.40;;;;;;;;;;5011904;28;20509;-77
2023/07/15 00:32:59;;;;;;;2.42;1.30;;;;;;;;;;5023105;28;20531;-77
2023/07/15 00:35:28;;;;;;;1.83;1.23;;;;;;;;;;5022945;28;20029;-77
2023/07/15 00:38:00;;;;;;;2.60;1.70;;;;;;;;;;5022965;28;20030;-76
2023/07/15 00:40:27;;;;;;;1.65;1.10;;;;;;;;;;5024077;28;20029;-77
2023/07/15 00:43:11;;;;;;;2.67;1.45;;;;;;;;;;5016902;28;20120;-76
2023/07/15 00:45:37;;;;;;;1.60;1.30;;;;;;;;;;5019229;28;20029;-76
2023/07/15 00:48:11;;;;;;;1.67;1.30;;;;;;;;;;5020809;28;20026;-77
2023/07/15 00:50:42;;;;;;;1.83;1.30;;;;;;;;;;5015254;28;20030;-77
2023/07/15 00:53:09;;;;;;;1.25;1.15;;;;;;;;;;5010911;28;20078;-77
2023/07/15 00:55:35;;;;;;;1.95;1.25;;;;;;;;;;5009919;28;20022;-77
2023/07/15 00:58:03;;;;;;;1.73;1.40;;;;;;;;;;5020555;28;20523;-77
2023/07/15 01:00:31;;;;;;;4.60;1.50;;;;;;;;;;5023896;28;20021;-77
2023/07/15 01:02:58;;;;;;;2.03;1.30;;;;;;;;;;5030535;28;20104;-77
2023/07/15 01:05:23;;;;;;;2.40;1.42;;;;;;;;;;5019496;28;20076;-77
2023/07/15 01:07:49;;;;;;;1.85;1.40;;;;;;;;;;5026920;28;20707;-77
2023/07/15 01:10:15;;;;;;;1.80;1.40;;;;;;;;;;5020557;28;20030;-76
2023/07/15 01:12:41;;;;;;;2.00;1.45;;;;;;;;;;5016298;28;20121;-77
2023/07/15 01:15:08;;;;;;;1.50;1.20;;;;;;;;;;5013111;28;20021;-77
2023/07/15 01:17:33;;;;;;;1.60;1.20;;;;;;;;;;5019511;28;20025;-77
2023/07/15 01:19:59;;;;;;;2.10;1.40;;;;;;;;;;5028130;28;20487;-77
2023/07/15 01:22:26;;;;;;;1.83;1.60;;;;;;;;;;5024577;28;20335;-77
2023/07/15 01:24:52;;;;;;;2.20;1.33;;;;;;;;;;5027139;28;20037;-77
2023/07/15 01:27:18;;;;;;;3.10;1.48;;;;;;;;;;5007148;28;20025;-77
2023/07/15 01:29:44;;;;;;;2.58;1.60;;;;;;;;;;5025591;28;20021;-77
2023/07/15 01:32:11;;;;;;;2.25;1.50;;;;;;;;;;5028862;28;20047;-78
2023/07/15 01:34:37;;;;;;;1.88;1.17;;;;;;;;;;5028273;28;20607;-78
2023/07/15 01:37:03;;;;;;;3.97;1.23;;;;;;;;;;5028542;28;20028;-77
2023/07/15 01:39:29;;;;;;;1.48;1.20;;;;;;;;;;5027343;28;20022;-77
2023/07/15 01:41:55;;;;;;;2.55;1.70;;;;;;;;;;5036136;28;20032;-77
2023/07/15 01:44:22;;;;;;;1.67;1.45;;;;;;;;;;5030900;28;20025;-77
2023/07/15 01:46:48;;;;;;;2.15;1.48;;;;;;;;;;5030570;28;20545;-77
2023/07/15 01:49:14;;;;;;;1.88;1.38;;;;;;;;;;5025189;28;20029;-78
2023/07/15 01:51:39;;;;;;;1.88;1.25;;;;;;;;;;5028036;28;20525;-77
2023/07/15 01:54:05;;;;;;;1.65;1.33;;;;;;;;;;5029060;28;20038;-77
2023/07/15 01:56:31;;;;;;;2.80;1.67;;;;;;;;;;5026563;28;20026;-77
2023/07/15 01:58:57;;;;;;;1.48;1.27;;;;;;;;;;5024367;28;20064;-77
2023/07/15 02:01:23;;;;;;;1.83;1.42;;;;;;;;;;5031762;28;20064;-77
2023/07/15 02:03:50;;;;;;;1.90;1.40;;;;;;;;;;5028277;28;20035;-77
2023/07/15 02:06:16;;;;;;;2.17;1.60;;;;;;;;;;5018341;28;20593;-77
2023/07/15 02:08:42;;;;;;;1.77;1.33;;;;;;;;;;5025343;28;20029;-77
2023/07/15 02:11:08;;;;;;;2.17;1.40;;;;;;;;;;5026006;28;20030;-78
2023/07/15 02:13:34;;;;;;;1.77;1.42;;;;;;;;;;5030017;28;20029;-77
2023/07/15 02:16:00;;;;;;;2.42;2.00;;;;;;;;;;5028339;28;20032;-77
2023/07/15 02:18:26;;;;;;;2.20;1.33;;;;;;;;;;5033714;28;20030;-77
2023/07/15 02:20:52;;;;;;;2.10;1.58;;;;;;;;;;5028577;28;20030;-77
2023/07/15 02:23:18;;;;;;;4.00;1.65;;;;;;;;;;5023036;28;20036;-77
2023/07/15 02:25:44;;;;;;;2.88;1.73;;;;;;;;;;5029058;28;20103;-77
2023/07/15 02:28:10;;;;;;;2.35;1.55;;;;;;;;;;5024508;28;20439;-77
2023/07/15 02:30:36;;;;;;;1.42;1.30;;;;;;;;;;5019823;28;20037;-77
2023/07/15 02:33:05;;;;;;;1.85;1.50;;;;;;;;;;5030798;28;20151;-77
2023/07/15 02:35:33;;;;;;;3.85;1.52;;;;;;;;;;5021545;28;20022;-77
2023/07/15 02:37:59;;;;;;;1.55;1.35;;;;;;;;;;5022447;28;20029;-78
2023/07/15 02:40:25;;;;;;;1.77;1.55;;;;;;;;;;5028439;28;20027;-77
2023/07/15 02:42:52;;;;;;;2.33;1.50;;;;;;;;;;5027778;28;20018;-77
2023/07/15 02:45:18;;;;;;;2.03;1.55;;;;;;;;;;5025392;28;20093;-77
2023/07/15 02:47:44;;;;;;;2.03;1.30;;;;;;;;;;5029042;28;20036;-78
2023/07/15 02:50:10;;;;;;;2.38;1.60;;;;;;;;;;5026315;28;20033;-77
2023/07/15 02:52:37;;;;;;;1.75;1.55;;;;;;;;;;5025852;28;20033;-77
2023/07/15 02:55:04;;;;;;;2.00;1.45;;;;;;;;;;5029096;28;20051;-77
2023/07/15 02:57:30;;;;;;;1.77;1.50;;;;;;;;;;5026066;28;20033;-77
2023/07/15 02:59:57;;;;;;;1.42;1.25;;;;;;;;;;5023189;28;20133;-77
2023/07/15 03:02:25;;;;;;;2.15;1.38;;;;;;;;;;5029644;28;20044;-77
2023/07/15 03:04:51;;;;;;;1.73;1.30;;;;;;;;;;5028371;28;20459;-77
2023/07/15 03:07:18;;;;;;;2.63;1.50;;;;;;;;;;5028578;28;20388;-77
2023/07/15 03:09:47;;;;;;;1.50;1.25;;;;;;;;;;5026522;28;20464;-77
2023/07/15 03:12:13;;;;;;;1.73;1.50;;;;;;;;;;5026961;28;20090;-77
2023/07/15 03:14:41;;;;;;;2.30;1.70;;;;;;;;;;5024685;28;20053;-77
2023/07/15 03:17:08;;;;;;;1.40;1.25;;;;;;;;;;5023413;28;20025;-77
2023/07/15 03:19:34;;;;;;;2.17;1.58;;;;;;;;;;5028100;28;20025;-77
2023/07/15 03:22:00;;;;;;;1.52;1.30;;;;;;;;;;5026508;28;20091;-76
2023/07/15 03:24:26;;;;;;;2.60;1.38;;;;;;;;;;5028807;28;20033;-76
2023/07/15 03:26:55;;;;;;;2.45;1.85;;;;;;;;;;5027612;28;20041;-76
2023/07/15 03:29:22;;;;;;;1.90;1.63;;;;;;;;;;5026769;28;20079;-76
2023/07/15 03:31:49;;;;;;;1.60;1.50;;;;;;;;;;5026193;28;20091;-76
2023/07/15 03:34:15;;;;;;;2.08;1.38;;;;;;;;;;5017050;28;20084;-77
2023/07/15 03:36:41;;;;;;;1.77;1.20;;;;;;;;;;5019053;28;20076;-77
2023/07/15 03:39:07;;;;;;;1.33;1.20;;;;;;;;;;5022456;28;20498;-77
2023/07/15 03:41:33;;;;;;;2.10;1.50;;;;;;;;;;5018680;28;20080;-82
2023/07/15 03:43:59;;;;;;;2.83;1.52;;;;;;;;;;5015595;28;20037;-76
2023/07/15 03:46:25;;;;;;;2.03;1.30;;;;;;;;;;5027053;28;20033;-77
2023/07/15 03:48:51;;;;;;;1.58;1.33;;;;;;;;;;5028277;28;20496;-76
2023/07/15 03:51:17;;;;;;;1.77;1.13;;;;;;;;;;5026160;28;20554;-82
2023/07/15 03:53:43;;;;;;;4.13;1.85;;;;;;;;;;5019841;28;20535;-76
2023/07/15 03:56:09;;;;;;;2.58;1.58;;;;;;;;;;5027191;28;20087;-77
2023/07/15 03:58:35;;;;;;;2.08;1.45;;;;;;;;;;5026582;28;20029;-81
2023/07/15 04:01:01;;;;;;;1.65;1.17;;;;;;;;;;5023896;28;20037;-76
2023/07/15 04:03:27;;;;;;;1.65;1.55;;;;;;;;;;5012249;28;20369;-78
2023/07/15 04:05:53;;;;;;;1.48;1.35;;;;;;;;;;5022931;28;20041;-77
2023/07/15 04:08:19;;;;;;;1.60;1.45;;;;;;;;;;5028131;28;20114;-75
2023/07/15 04:10:46;;;;;;;1.83;1.60;;;;;;;;;;5024732;28;20480;-78
2023/07/15 04:13:12;;;;;;;2.10;1.52;;;;;;;;;;5024627;28;20013;-79
2023/07/15 04:15:38;;;;;;;3.65;2.03;;;;;;;;;;5031605;28;20104;-79
2023/07/15 04:18:04;;;;;;;4.00;1.60;;;;;;;;;;5022748;28;20186;-76
2023/07/15 04:20:30;;;;;;;2.25;1.40;;;;;;;;;;5017848;28;20026;-77
2023/07/15 04:22:56;;;;;;;1.73;1.17;;;;;;;;;;5028129;28;20075;-77
2023/07/15 04:25:23;;;;;;;1.50;1.27;;;;;;;;;;5026863;28;20480;-77
2023/07/15 04:27:49;;;;;;;1.77;1.50;;;;;;;;;;5021273;28;20045;-77
2023/07/15 04:30:14;;;;;;;1.80;1.33;;;;;;;;;;5026019;28;20484;-77
2023/07/15 04:32:40;;;;;;;1.63;1.42;;;;;;;;;;5019445;28;20030;-77
2023/07/15 04:35:07;;;;;;;1.63;1.48;;;;;;;;;;5019020;28;20029;-77
2023/07/15 04:37:33;;;;;;;1.95;1.73;;;;;;;;;;5027530;28;20033;-77
2023/07/15 04:39:59;;;;;;;3.17;1.38;;;;;;;;;;5027696;28;20021;-77
2023/07/15 04:42:26;;;;;;;2.03;1.58;;;;;;;;;;5023959;28;20116;-77
2023/07/15 04:44:52;;;;;;;3.00;1.90;;;;;;;;;;5020809;28;20026;-77
2023/07/15 04:47:18;;;;;;;1.90;1.55;;;;;;;;;;5028571;28;20025;-76
2023/07/15 04:49:44;;;;;;;1.80;1.30;;;;;;;;;;5028390;28;20030;-77
2023/07/15 04:52:10;;;;;;;2.42;1.73;;;;;;;;;;5029216;28;20519;-77
2023/07/15 04:54:36;;;;;;;1.35;1.17;;;;;;;;;;5032201;28;20033;-77
2023/07/15 04:57:02;;;;;;;2.10;1.60;;;;;;;;;;5032232;28;20024;-77
2023/07/15 04:59:28;;;;;;;5.18;1.50;;;;;;;;;;5031894;28;20018;-77
2023/07/15 05:01:53;;;;;;;2.25;2.03;;;;;;;;;;5028767;28;20033;-77
2023/07/15 05:04:19;;;;;;;1.80;1.40;;;;;;;;;;5029717;28;20033;-77
2023/07/15 05:06:45;;;;;;;3.60;1.70;;;;;;;;;;5032100;28;20029;-77
2023/07/15 05:09:11;;;;;;;2.28;1.58;;;;;;;;;;5032089;28;20025;-77
2023/07/15 05:11:43;;;;;;;2.50;1.85;;;;;;;;;;5010516;28;20060;-77
2023/07/15 05:14:10;;;;;;;2.30;1.77;;;;;;;;;;5019521;28;20179;-77
2023/07/15 05:16:36;;;;;;;1.70;1.50;;;;;;;;;;5024157;28;20753;-77
2023/07/15 05:19:02;;;;;;;2.97;1.95;;;;;;;;;;5028233;28;20028;-78
2023/07/15 05:21:28;;;;;;;1.92;1.67;;;;;;;;;;5029846;28;20033;-77
2023/07/15 05:23:54;;;;;;;3.47;1.95;;;;;;;;;;5029945;28;20028;-78
2023/07/15 05:26:20;;;;;;;1.50;1.30;;;;;;;;;;5034258;28;20026;-79
2023/07/15 05:28:46;;;;;;;2.50;1.60;;;;;;;;;;5031447;28;20125;-79
2023/07/15 05:31:12;;;;;;;2.00;1.80;;;;;;;;;;5025178;28;20087;-78
2023/07/15 05:33:38;;;;;;;2.13;1.70;;;;;;;;;;5021617;28;20037;-77
2023/07/15 05:36:04;;;;;;;1.48;1.38;;;;;;;;;;5030250;28;20025;-78
2023/07/15 05:38:30;;;;;;;3.45;1.50;;;;;;;;;;5030353;28;20104;-77
2023/07/15 05:40:56;;;;;;;3.85;2.05;;;;;;;;;;5026780;28;20684;-77
2023/07/15 05:43:22;;;;;;;2.50;2.00;;;;;;;;;;5031545;28;20025;-80
2023/07/15 05:45:48;;;;;;;1.77;1.65;;;;;;;;;;5031668;28;20040;-79
2023/07/15 05:48:14;;;;;;;2.05;1.65;;;;;;;;;;5031325;28;20116;-80
2023/07/15 05:50:40;;;;;;;2.47;1.60;;;;;;;;;;5031346;28;20029;-79
2023/07/15 05:53:07;;;;;;;2.55;1.83;;;;;;;;;;5029715;28;20120;-78
2023/07/15 05:55:33;;;;;;;1.48;1.38;;;;;;;;;;5026316;28;20029;-79
2023/07/15 05:58:09;;;;;;;2.83;2.03;;;;;;;;;;5025502;28;20088;-79
2023/07/15 06:00:35;;;;;;;3.55;1.80;;;;;;;;;;5025883;28;20037;-78
2023/07/15 06:03:01;;;;;;;2.28;1.42;;;;;;;;;;5030886;28;20396;-77
2023/07/15 06:05:27;;;;;;;1.60;1.33;;;;;;;;;;5028403;28;20058;-78
2023/07/15 06:07:53;;;;;;;3.55;2.13;;;;;;;;;;5025982;28;20024;-77
2023/07/15 06:10:19;;;;;;;7.78;1.88;;;;;;;;;;5028893;28;20028;-78
2023/07/15 06:12:45;;;;;;;2.47;2.03;;;;;;;;;;5034092;28;20026;-78
2023/07/15 06:15:11;;;;;;;1.92;1.60;;;;;;;;;;5021803;28;20021;-79
2023/07/15 06:17:38;;;;;;;2.45;1.40;;;;;;;;;;5026774;28;20563;-79
2023/07/15 06:20:04;;;;;;;2.47;1.52;;;;;;;;;;5038842;28;20021;-80
2023/07/15 06:22:30;;;;;;;1.85;1.70;;;;;;;;;;5030792;28;20084;-79
2023/07/15 06:24:56;;;;;;;2.15;1.60;;;;;;;;;;5035017;28;20029;-78
2023/07/15 06:27:23;;;;;;;2.83;1.70;;;;;;;;;;5031718;28;20067;-77
2023/07/15 06:29:49;;;;;;;2.83;1.88;;;;;;;;;;5030409;28;20030;-77
2023/07/15 06:32:15;;;;;;;1.95;1.67;;;;;;;;;;5026093;28;20484;-78
2023/07/15 06:34:41;;;;;;;3.15;1.80;;;;;;;;;;5030193;28;20090;-78
2023/07/15 06:37:07;;;;;;;4.78;2.10;;;;;;;;;;5033815;28;20120;-79
2023/07/15 06:39:33;;;;;;;1.83;1.67;;;;;;;;;;5029604;28;20030;-78
2023/07/15 06:41:59;;;;;;;3.58;1.90;;;;;;;;;;5029480;28;20030;-78
2023/07/15 06:44:25;;;;;;;2.35;1.73;;;;;;;;;;5026832;28;20104;-79
2023/07/15 06:46:51;;;;;;;2.42;1.55;;;;;;;;;;5029542;28;20030;-78
2023/07/15 06:49:17;;;;;;;1.77;1.40;;;;;;;;;;5029737;28;20044;-78
2023/07/15 06:51:43;;;;;;;1.50;1.40;;;;;;;;;;5030377;28;20384;-79
2023/07/15 06:54:09;;;;;;;1.70;1.60;;;;;;;;;;5027864;28;20396;-79
2023/07/15 06:56:35;;;;;;;2.08;1.65;;;;;;;;;;5029940;28;20397;-79
2023/07/15 06:59:01;;;;;;;2.45;1.70;;;;;;;;;;5030287;28;20022;-80
2023/07/15 07:01:28;;;;;;;1.95;1.58;;;;;;;;;;5029787;28;20104;-79
2023/07/15 07:03:54;;;;;;;1.50;1.40;;;;;;;;;;5028212;28;20026;-79
2023/07/15 07:06:20;;;;;;;2.10;1.77;;;;;;;;;;5029200;28;20128;-79
2023/07/15 07:08:47;;;;;;;2.58;1.70;;;;;;;;;;5022851;28;20492;-79
2023/07/15 07:11:13;;;;;;;1.98;1.55;;;;;;;;;;5029916;28;20384;-79
2023/07/15 07:13:39;;;;;;;1.42;1.25;;;;;;;;;;5028006;28;20638;-80
2023/07/15 07:16:05;;;;;;;2.83;1.70;;;;;;;;;;5005543;28;20436;-78
2023/07/15 07:18:31;;;;;;;2.03;1.73;;;;;;;;;;5034143;28;20029;-79
2023/07/15 07:21:01;;;;;;;2.75;1.77;;;;;;;;;;5034304;28;20033;-77
2023/07/15 07:23:27;;;;;;;4.63;1.75;;;;;;;;;;5038543;28;20064;-77
2023/07/15 07:25:53;;;;;;;2.47;1.52;;;;;;;;;;5041330;28;20036;-76
2023/07/15 07:28:23;;;;;;;1.73;1.60;;;;;;;;;;5021306;28;20029;-86
2023/07/15 07:30:48;;;;;;;3.65;1.88;;;;;;;;;;5030363;28;20035;-84
2023/07/15 07:33:14;;;;;;;1.67;1.58;;;;;;;;;;5029157;28;20017;-83
2023/07/15 07:35:40;;;;;;;1.67;1.52;;;;;;;;;;5038592;28;20033;-82
2023/07/15 07:38:06;;;;;;;1.92;1.70;;;;;;;;;;5029008;28;20026;-80
2023/07/15 07:40:33;;;;;;;2.63;1.90;;;;;;;;;;5033329;28;20519;-80
2023/07/15 07:42:59;;;;;;;1.48;1.38;;;;;;;;;;5027898;28;20037;-80
2023/07/15 07:45:25;;;;;;;2.95;1.88;;;;;;;;;;5028861;28;20034;-79
2023/07/15 07:47:51;;;;;;;1.85;1.60;;;;;;;;;;5028681;28;20143;-80
2023/07/15 07:50:17;;;;;;;2.00;1.58;;;;;;;;;;5027597;28;20029;-85
2023/07/15 07:52:43;;;;;;;2.25;1.50;;;;;;;;;;5030606;28;20028;-83
2023/07/15 07:55:09;;;;;;;2.67;1.60;;;;;;;;;;5029611;28;20034;-81
2023/07/15 07:57:36;;;;;;;2.13;1.77;;;;;;;;;;5029702;28;20025;-82
2023/07/15 08:00:02;;;;;;;2.50;1.80;;;;;;;;;;5028694;28;20025;-83
2023/07/15 08:02:28;;;;;;;1.65;1.38;;;;;;;;;;5023874;28;20025;-89
2023/07/15 08:04:54;;;;;;;2.45;1.70;;;;;;;;;;5028004;28;20107;-80
2023/07/15 08:07:20;;;;;;;2.65;1.50;;;;;;;;;;5026442;28;20492;-82
2023/07/15 08:09:46;;;;;;;3.75;2.10;;;;;;;;;;5025448;28;20037;-80
2023/07/15 08:12:12;;;;;;;2.20;1.40;;;;;;;;;;5023374;28;20388;-80
2023/07/15 08:14:38;;;;;;;4.15;1.60;;;;;;;;;;5027291;28;20394;-80
2023/07/15 08:17:04;;;;;;;2.25;1.55;;;;;;;;;;5026942;28;20079;-80
2023/07/15 08:19:30;;;;;;;4.47;1.75;;;;;;;;;;5030434;28;20022;-81
2023/07/15 08:21:56;;;;;;;2.22;1.95;;;;;;;;;;5032862;28;20043;-80
2023/07/15 08:24:22;;;;;;;1.88;1.50;;;;;;;;;;5049092;28;20488;-81
2023/07/15 08:26:48;;;;;;;3.33;1.55;;;;;;;;;;5036722;28;20038;-79
2023/07/15 08:29:14;;;;;;;3.85;1.85;;;;;;;;;;5024206;28;20037;-85
2023/07/15 08:31:40;;;;;;;1.52;1.40;;;;;;;;;;5030785;28;20032;-82
2023/07/15 08:34:11;;;;;;;3.67;1.67;;;;;;;;;;5032167;28;20533;-79
2023/07/15 08:36:37;;;;;;;3.47;1.50;;;;;;;;;;5027157;28;20208;-79
2023/07/15 08:39:03;;;;;;;1.63;1.40;;;;;;;;;;5033556;28;20542;-80
2023/07/15 08:41:38;;;;;;;1.40;1.17;;;;;;;;;;5032651;28;20025;-80
2023/07/15 08:44:04;;;;;;;3.83;1.70;;;;;;;;;;5036264;28;20030;-81
2023/07/15 08:46:30;;;;;;;1.60;1.45;;;;;;;;;;5032490;28;20170;-82
2023/07/15 08:48:57;;;;;;;2.35;1.65;;;;;;;;;;5048296;28;20040;-81
2023/07/15 08:51:25;;;;;;;4.28;1.60;;;;;;;;;;5040523;28;20033;-83
2023/07/15 08:53:52;;;;;;;1.50;1.30;;;;;;;;;;5037786;28;20018;-77
2023/07/15 08:56:18;;;;;;;5.88;1.40;;;;;;;;;;5041451;28;20177;-79
2023/07/15 08:58:44;;;;;;;5.13;1.65;;;;;;;;;;5038363;28;20087;-80
2023/07/15 09:01:10;;;;;;;5.15;1.98;;;;;;;;;;5045036;28;20037;-79
2023/07/15 09:03:36;;;;;;;2.95;1.98;;;;;;;;;;5024693;28;20049;-80
2023/07/15 09:06:02;;;;;;;2.30;1.58;;;;;;;;;;5035088;28;20053;-81
2023/07/15 09:08:28;;;;;;;2.28;1.60;;;;;;;;;;5031498;28;20017;-82
2023/07/15 09:10:58;;;;;;;2.67;1.77;;;;;;;;;;5037914;28;20534;-82
2023/07/15 09:13:28;;;;;;;1.95;1.73;;;;;;;;;;5020819;28;20069;-83
2023/07/15 09:15:55;;;;;;;2.70;1.60;;;;;;;;;;5034896;28;20026;-82
2023/07/15 09:18:22;;;;;;;2.22;1.63;;;;;;;;;;5035102;28;21081;-83
2023/07/15 09:20:48;;;;;;;1.95;1.77;;;;;;;;;;5031023;28;20033;-83
2023/07/15 09:23:18;;;;;;;4.38;1.70;;;;;;;;;;5036266;28;20056;-83
2023/07/15 09:25:54;;;;;;;2.80;1.80;;;;;;;;;;5039869;28;20021;-82
2023/07/15 09:28:21;;;;;;;1.77;1.58;;;;;;;;;;5034397;28;20033;-84
2023/07/15 09:30:47;;;;;;;1.48;1.38;;;;;;;;;;5039276;28;20025;-83
2023/07/15 09:33:29;;;;;;;1.65;1.45;;;;;;;;;;5043035;28;20041;-83
2023/07/15 09:35:56;;;;;;;2.25;1.73;;;;;;;;;;5041567;28;20022;-83
2023/07/15 09:38:22;;;;;;;1.95;1.73;;;;;;;;;;5039432;28;20129;-82
2023/07/15 09:40:49;;;;;;;2.50;1.80;;;;;;;;;;5040421;28;20025;-82
2023/07/15 09:43:15;;;;;;;1.90;1.80;;;;;;;;;;5038820;28;20017;-81
2023/07/15 09:45:41;;;;;;;1.80;1.70;;;;;;;;;;5036470;28;20558;-83
2023/07/15 09:48:07;;;;;;;3.00;2.33;;;;;;;;;;5024531;28;20013;-80
2023/07/15 09:50:34;;;;;;;3.33;2.00;;;;;;;;;;5026608;28;20064;-80
2023/07/15 09:53:01;;;;;;;2.60;2.00;;;;;;;;;;5029960;28;20040;-79
2023/07/15 09:55:31;;;;;;;2.65;1.63;;;;;;;;;;5024447;28;20062;-84
2023/07/15 09:58:01;;;;;;;2.33;1.88;;;;;;;;;;5023899;28;20022;-83
2023/07/15 10:00:29;;;;;;;2.40;1.90;;;;;;;;;;5025795;28;20061;-83
2023/07/15 10:02:57;;;;;;;1.60;1.50;;;;;;;;;;5030751;28;20108;-83
2023/07/15 10:05:26;;;;;;;2.40;1.67;;;;;;;;;;5001551;28;1020021;-82
2023/07/15 10:07:52;;;;;;;2.35;1.73;;;;;;;;;;5031921;28;20029;-82
2023/07/15 10:10:19;;;;;;;2.33;1.70;;;;;;;;;;5029817;28;20029;-83
2023/07/15 10:12:45;;;;;;;3.40;1.60;;;;;;;;;;5028566;28;20914;-83
2023/07/15 10:15:12;;;;;;;4.90;1.90;;;;;;;;;;5028889;28;20480;-83
2023/07/15 10:17:38;;;;;;;2.95;1.95;;;;;;;;;;5009444;28;20388;-83
2023/07/15 10:20:04;;;;;;;1.55;1.30;;;;;;;;;;5027390;28;20083;-84
2023/07/15 10:22:34;;;;;;;2.00;1.70;;;;;;;;;;5028817;28;20029;-84
2023/07/15 10:25:02;;;;;;;2.33;1.73;;;;;;;;;;5028482;28;20124;-84
2023/07/15 10:27:28;;;;;;;1.65;1.55;;;;;;;;;;5029909;28;20547;-84
2023/07/15 10:30:13;;;;;;;1.98;1.38;;;;;;;;;;5025324;28;20055;-84
2023/07/15 10:32:39;;;;;;;1.98;1.65;;;;;;;;;;5027863;28;20026;-84
2023/07/15 10:35:05;;;;;;;2.30;1.63;;;;;;;;;;5026792;28;20032;-84
2023/07/15 10:37:34;;;;;;;1.83;1.65;;;;;;;;;;5028457;28;20029;-79
2023/07/15 10:40:00;;;;;;;4.35;1.75;;;;;;;;;;5026869;28;20116;-85
2023/07/15 10:42:26;;;;;;;3.05;2.00;;;;;;;;;;5026830;28;20415;-84
2023/07/15 10:44:53;;;;;;;1.67;1.58;;;;;;;;;;5025237;28;20041;-84
2023/07/15 10:47:19;;;;;;;1.95;1.75;;;;;;;;;;5026595;28;20534;-84
2023/07/15 10:49:48;;;;;;;1.85;1.35;;;;;;;;;;5012134;28;20480;-85
2023/07/15 10:52:19;;;;;;;2.05;1.67;;;;;;;;;;5032629;28;20879;-85
2023/07/15 10:54:46;;;;;;;1.83;1.70;;;;;;;;;;5022518;28;20045;-84
2023/07/15 10:57:14;;;;;;;1.88;1.65;;;;;;;;;;5011563;28;20499;-85
2023/07/15 10:59:41;;;;;;;3.88;1.83;;;;;;;;;;5030363;28;20013;-83
2023/07/15 11:02:07;;;;;;;2.28;1.70;;;;;;;;;;5027330;28;20041;-84
2023/07/15 11:04:34;;;;;;;1.40;1.30;;;;;;;;;;5027027;28;20109;-84
2023/07/15 11:07:05;;;;;;;2.33;1.85;;;;;;;;;;5026099;28;20116;-84
2023/07/15 11:09:31;;;;;;;3.10;1.70;;;;;;;;;;5026970;28;20035;-84
2023/07/15 11:11:57;;;;;;;3.22;1.92;;;;;;;;;;5026535;28;20206;-85
2023/07/15 11:14:28;;;;;;;1.90;1.70;;;;;;;;;;5027086;28;20108;-84
2023/07/15 11:16:58;;;;;;;3.10;1.80;;;;;;;;;;5026003;28;20025;-84
2023/07/15 11:19:26;;;;;;;1.77;1.67;;;;;;;;;;5027881;28;20084;-84
2023/07/15 11:21:52;;;;;;;3.10;1.50;;;;;;;;;;5026087;28;20685;-84
2023/07/15 11:24:18;;;;;;;1.98;1.67;;;;;;;;;;5027158;28;20117;-85
2023/07/15 11:26:45;;;;;;;2.08;1.85;;;;;;;;;;5024582;28;20029;-85
2023/07/15 11:29:18;;;;;;;1.65;1.55;;;;;;;;;;5027247;28;20029;-83
2023/07/15 11:31:45;;;;;;;2.60;1.90;;;;;;;;;;5026630;28;20022;-84
2023/07/15 11:34:11;;;;;;;4.82;1.63;;;;;;;;;;5026296;28;20114;-83
2023/07/15 11:36:38;;;;;;;2.00;1.50;;;;;;;;;;5024112;28;20192;-84
2023/07/15 11:39:05;;;;;;;2.58;1.67;;;;;;;;;;5025140;28;20038;-85
2023/07/15 11:41:32;;;;;;;5.00;1.80;;;;;;;;;;5027447;28;20499;-84
2023/07/15 11:43:59;;;;;;;2.33;1.63;;;;;;;;;;5026509;28;20100;-84
2023/07/15 11:46:25;;;;;;;1.52;1.40;;;;;;;;;;5026692;28;20025;-85
2023/07/15 11:48:51;;;;;;;2.58;2.10;;;;;;;;;;5024049;28;20465;-85
2023/07/15 11:51:17;;;;;;;2.88;1.80;;;;;;;;;;5024165;28;20033;-84
2023/07/15 11:53:44;;;;;;;2.55;1.85;;;;;;;;;;5024158;28;20033;-85
2023/07/15 11:56:10;;;;;;;7.00;1.70;;;;;;;;;;5026078;28;20101;-85
2023/07/15 11:58:45;;;;;;;4.00;1.80;;;;;;;;;;5027285;28;20446;-82
2023/07/15 12:01:24;;;;;;;2.38;1.50;;;;;;;;;;5025232;28;20116;-84
2023/07/15 12:03:50;;;;;;;3.08;1.60;;;;;;;;;;5040038;28;20026;-84
2023/07/15 12:06:17;;;;;;;2.10;1.55;;;;;;;;;;5026044;28;20053;-84
2023/07/15 12:08:43;;;;;;;3.25;1.70;;;;;;;;;;5026138;28;20523;-85
2023/07/15 12:11:17;;;;;;;1.88;1.30;;;;;;;;;;5025943;28;20159;-84
2023/07/15 12:13:42;;;;;;;2.08;1.70;;;;;;;;;;5026189;28;20025;-84
2023/07/15 12:16:09;;;;;;;4.43;1.73;;;;;;;;;;5023822;28;20022;-83
2023/07/15 12:18:35;;;;;;;3.95;1.48;;;;;;;;;;5025835;28;20026;-84
2023/07/15 12:21:01;;;;;;;2.03;1.40;;;;;;;;;;5027794;28;20034;-85
2023/07/15 12:23:27;;;;;;;3.55;1.77;;;;;;;;;;5024603;28;20025;-84
2023/07/15 12:25:53;;;;;;;1.90;1.52;;;;;;;;;;5026319;28;20511;-84
2023/07/15 12:28:19;;;;;;;2.28;1.52;;;;;;;;;;5022255;28;20041;-85
2023/07/15 12:30:45;;;;;;;1.58;1.40;;;;;;;;;;5026069;28;20080;-84
2023/07/15 12:33:10;;;;;;;1.88;1.58;;;;;;;;;;5026104;28;20025;-84
2023/07/15 12:35:37;;;;;;;3.08;1.75;;;;;;;;;;5025648;28;20033;-84
2023/07/15 12:38:02;;;;;;;1.63;1.52;;;;;;;;;;5023891;28;20048;-80
2023/07/15 12:40:29;;;;;;;2.25;1.70;;;;;;;;;;5026104;28;20473;-81
2023/07/15 12:42:55;;;;;;;1.75;1.35;;;;;;;;;;5021720;28;20034;-80
2023/07/15 12:45:21;;;;;;;2.15;1.40;;;;;;;;;;5026147;28;20056;-83
2023/07/15 12:47:47;;;;;;;2.50;1.50;;;;;;;;;;5018461;28;20029;-84
2023/07/15 12:50:13;;;;;;;5.60;1.63;;;;;;;;;;5023388;28;20029;-77
2023/07/15 12:52:39;;;;;;;2.15;1.45;;;;;;;;;;5030690;28;20021;-83
2023/07/15 12:55:05;;;;;;;1.58;1.27;;;;;;;;;;5028324;28;20029;-81
2023/07/15 12:57:31;;;;;;;4.00;2.20;;;;;;;;;;5026513;28;20045;-79
2023/07/15 12:59:57;;;;;;;1.85;1.40;;;;;;;;;;5036198;28;20087;-79
2023/07/15 13:02:23;;;;;;;2.15;1.10;;;;;;;;;;5026661;28;20034;-82
2023/07/15 13:04:49;;;;;;;3.17;1.83;;;;;;;;;;5032106;28;20033;-84
2023/07/15 13:07:16;;;;;;;1.67;1.23;;;;;;;;;;5031504;28;20025;-83
2023/07/15 13:09:42;;;;;;;1.98;1.80;;;;;;;;;;5038655;28;20384;-84
2023/07/15 13:12:11;;;;;;;3.33;1.65;;;;;;;;;;5033723;28;20092;-85
2023/07/15 13:14:39;;;;;;;1.95;1.33;;;;;;;;;;5031138;28;20052;-84
2023/07/15 13:17:05;;;;;;;1.55;1.25;;;;;;;;;;5032039;28;20392;-84
2023/07/15 13:19:32;;;;;;;1.50;1.40;;;;;;;;;;5037301;28;20550;-84
2023/07/15 13:22:05;;;;;;;1.38;1.10;;;;;;;;;;5041479;28;20112;-84
2023/07/15 13:24:31;;;;;;;1.10;1.00;;;;;;;;;;5014116;28;20048;-83
2023/07/15 13:26:57;;;;;;;1.15;1.05;;;;;;;;;;5013280;28;20489;-82
2023/07/15 13:29:23;;;;;;;1.20;1.10;;;;;;;;;;5031538;28;20529;-83
2023/07/15 13:31:49;;;;;;;1.40;1.30;;;;;;;;;;5037381;28;20025;-82
2023/07/15 13:34:15;;;;;;;1.50;1.40;;;;;;;;;;5033559;28;20025;-82
2023/07/15 13:36:42;;;;;;;1.80;1.15;;;;;;;;;;5023148;28;20017;-81
2023/07/15 13:39:08;;;;;;;1.60;1.23;;;;;;;;;;5027688;28;20025;-82
2023/07/15 13:41:34;;;;;;;3.03;1.08;;;;;;;;;;5032203;28;20033;-82
2023/07/15 13:44:00;;;;;;;2.42;1.55;;;;;;;;;;5032981;28;20481;-82
2023/07/15 13:46:26;;;;;;;1.25;1.15;;;;;;;;;;5031214;28;20030;-82
2023/07/15 13:48:52;;;;;;;1.40;1.30;;;;;;;;;;5028807;28;20041;-82
2023/07/15 13:51:18;;;;;;;3.35;1.50;;;;;;;;;;5029120;28;20443;-81
2023/07/15 13:53:44;;;;;;;2.10;1.30;;;;;;;;;;5040546;28;20025;-81
2023/07/15 13:56:11;;;;;;;1.13;1.02;;;;;;;;;;5030805;28;20105;-81
2023/07/15 13:58:37;;;;;;;2.78;1.20;;;;;;;;;;5038858;28;20021;-81
2023/07/15 14:01:03;;;;;;;2.05;1.17;;;;;;;;;;5031540;28;20443;-81
2023/07/15 14:03:29;;;;;;;1.85;1.30;;;;;;;;;;5042583;28;20065;-80
2023/07/15 14:05:54;;;;;;;1.30;0.95;;;;;;;;;;5030641;28;20041;-80
2023/07/15 14:08:21;;;;;;;3.30;1.30;;;;;;;;;;5035706;28;20082;-81
2023/07/15 14:10:47;;;;;;;1.90;1.02;;;;;;;;;;5031595;28;20056;-80
2023/07/15 14:13:13;;;;;;;1.77;1.45;;;;;;;;;;5032758;28;20037;-80
2023/07/15 14:15:39;;;;;;;3.75;1.38;;;;;;;;;;5041128;28;20524;-80
2023/07/15 14:18:07;;;;;;;1.73;1.13;;;;;;;;;;5025739;28;20029;-81
2023/07/15 14:20:33;;;;;;;2.17;1.42;;;;;;;;;;5039002;28;20025;-80
2023/07/15 14:22:59;;;;;;;1.05;0.90;;;;;;;;;;5030294;28;20033;-81
2023/07/15 14:25:25;;;;;;;3.53;1.50;;;;;;;;;;5028156;28;20036;-80
2023/07/15 14:27:51;;;;;;;0.80;0.80;;;;;;;;;;5030194;28;20050;-79
2023/07/15 14:30:17;;;;;;;0.88;0.85;;;;;;;;;;5032437;28;20030;-79
2023/07/15 14:32:43;;;;;;;0.88;0.88;;;;;;;;;;5032198;28;20036;-77
2023/07/15 14:35:09;;;;;;;3.38;1.15;;;;;;;;;;5015670;28;20037;-76
2023/07/15 14:37:35;;;;;;;1.42;1.20;;;;;;;;;;5034425;28;20061;-75
2023/07/15 14:40:01;;;;;;;1.20;1.10;;;;;;;;;;5034014;28;20029;-77